createdAt,value
2023-04-11T00:04:25.626Z,75.40
2023-04-11T00:09:27.724Z,77.90
2023-04-11T00:14:32.446Z,76.20
2023-04-11T00:19:34.418Z,75.20
2023-04-11T00:24:36.309Z,76.10
2023-04-11T00:29:38.154Z,76.80
2023-04-11T00:34:41.160Z,76.80
2023-04-11T00:39:42.848Z,79.30
2023-04-11T00:44:45.135Z,79.40
2023-04-11T00:49:47.134Z,78.70
2023-04-11T00:54:48.964Z,79.90
2023-04-11T00:59:51.598Z,80.10
2023-04-11T01:04:53.478Z,81.70
2023-04-11T01:09:55.651Z,80.80
2023-04-11T01:14:57.896Z,82.70
2023-04-11T01:20:01.144Z,82.70
2023-04-11T01:25:04.792Z,82.50
2023-04-11T01:30:07.520Z,83.30
2023-04-11T01:35:11.353Z,83.70
2023-04-11T01:40:21.444Z,84.70
2023-04-11T01:45:25.770Z,84.70
2023-04-11T01:50:27.913Z,85.40
2023-04-11T01:55:29.839Z,85.60
2023-04-11T02:00:32.605Z,86.60
2023-04-11T02:05:34.469Z,87.50
2023-04-11T02:10:36.383Z,87.20
2023-04-11T02:15:38.476Z,88.10
2023-04-11T02:20:43.229Z,88.80
2023-04-11T02:25:45.112Z,89.70
2023-04-11T02:30:46.871Z,90.00
2023-04-11T02:35:48.822Z,90.20
2023-04-11T02:40:50.850Z,90.80
2023-04-11T02:46:02.035Z,91.00
2023-04-11T02:51:11.673Z,90.90
2023-04-11T02:56:18.750Z,91.30
2023-04-11T03:01:23.054Z,91.80
2023-04-11T03:06:25.094Z,91.80
2023-04-11T03:11:27.013Z,92.20
2023-04-11T03:16:28.887Z,92.40
2023-04-11T03:21:31.569Z,92.90
2023-04-11T03:26:33.898Z,93.10
2023-04-11T03:31:35.981Z,93.70
2023-04-11T03:36:37.869Z,94.40
2023-04-11T03:41:39.668Z,94.70
2023-04-11T03:46:41.585Z,95.10
2023-04-11T03:51:43.347Z,96.40
2023-04-11T03:56:45.290Z,96.70
2023-04-11T04:01:47.080Z,96.90
2023-04-11T04:06:48.900Z,97.10
2023-04-11T04:11:51.038Z,97.60
2023-04-11T04:16:52.841Z,98.20
2023-04-11T04:21:58.088Z,98.70
2023-04-11T04:27:02.059Z,97.70
2023-04-11T04:32:11.003Z,97.20
2023-04-11T04:37:21.818Z,97.50
2023-04-11T04:42:26.147Z,96.70
2023-04-11T04:47:32.673Z,96.90
2023-04-11T04:52:34.843Z,96.30
2023-04-11T04:57:36.742Z,96.10
2023-04-11T05:02:40.913Z,95.60
2023-04-11T05:07:43.127Z,95.20
2023-04-11T05:12:44.897Z,94.30
2023-04-11T05:17:46.839Z,93.20
2023-04-11T05:22:50.277Z,92.10
2023-04-11T05:27:51.984Z,91.80
2023-04-11T05:32:53.917Z,91.70
2023-04-11T05:37:55.763Z,91.60
2023-04-11T05:42:57.832Z,92.10
2023-04-11T05:47:59.972Z,92.00
2023-04-11T05:53:02.267Z,92.20
2023-04-11T05:58:04.863Z,91.60
2023-04-11T06:03:07.975Z,90.60
2023-04-11T06:08:10.480Z,88.40
2023-04-11T06:13:12.363Z,87.60
2023-04-11T06:18:14.185Z,87.40
2023-04-11T06:23:16.203Z,85.50
2023-04-11T06:28:18.107Z,84.40
2023-04-11T06:33:20.474Z,82.30
2023-04-11T06:38:22.265Z,81.40
2023-04-11T06:43:23.990Z,80.50
2023-04-11T06:48:26.125Z,78.70
2023-04-11T06:53:27.876Z,74.30
2023-04-11T06:58:29.916Z,68.70
2023-04-11T07:03:31.966Z,67.50
2023-04-11T07:08:34.270Z,60.30
2023-04-11T07:13:36.017Z,57.40
2023-04-11T07:18:38.010Z,58.50
2023-04-11T07:23:40.869Z,56.30
2023-04-11T07:28:44.304Z,57.00
2023-04-11T07:33:45.994Z,54.70
2023-04-11T07:38:48.001Z,46.00
2023-04-11T07:43:49.783Z,52.30
2023-04-11T07:48:51.701Z,55.70
2023-04-11T07:53:54.511Z,56.50
2023-04-11T07:58:58.441Z,51.00
2023-04-11T08:04:00.656Z,48.40
2023-04-11T08:09:02.754Z,42.20
2023-04-11T08:14:04.551Z,37.30
2023-04-11T08:19:06.911Z,33.20
2023-04-11T08:24:08.973Z,36.70
2023-04-11T08:29:11.407Z,38.50
2023-04-11T08:34:13.427Z,39.00
2023-04-11T08:39:15.340Z,34.90
2023-04-11T08:44:17.269Z,36.60
2023-04-11T08:49:19.238Z,32.90
2023-04-11T08:54:21.165Z,33.30
2023-04-11T08:59:22.974Z,31.20
2023-04-11T09:04:42.539Z,29.20
2023-04-11T09:09:44.472Z,30.00
2023-04-11T09:14:46.302Z,27.60
2023-04-11T09:19:49.350Z,29.30
2023-04-11T09:25:02.814Z,27.50
2023-04-11T09:30:06.050Z,28.90
2023-04-11T09:35:09.311Z,28.60
2023-04-11T09:40:12.104Z,26.40
2023-04-11T09:45:21.266Z,29.40
2023-04-11T09:50:24.089Z,29.40
2023-04-11T09:55:26.141Z,32.40
2023-04-11T10:00:32.570Z,32.10
2023-04-11T10:05:34.811Z,29.60
2023-04-11T10:10:36.844Z,29.00
2023-04-11T10:15:58.722Z,30.10
2023-04-11T10:21:01.359Z,35.00
2023-04-11T10:26:08.423Z,37.80
2023-04-11T10:31:17.403Z,38.60
2023-04-11T10:36:20.810Z,39.70
2023-04-11T10:41:27.804Z,39.50
2023-04-11T10:46:29.886Z,36.30
2023-04-11T10:51:33.632Z,38.70
2023-04-11T10:56:45.928Z,36.70
2023-04-11T11:01:55.804Z,38.00
2023-04-11T11:06:59.110Z,37.10
2023-04-11T11:12:10.731Z,37.10
2023-04-11T11:17:17.126Z,38.90
2023-04-11T11:22:25.975Z,38.50
2023-04-11T11:27:28.463Z,36.60
2023-04-11T11:32:32.619Z,36.40
2023-04-11T11:37:34.580Z,37.70
2023-04-11T11:42:37.063Z,36.40
2023-04-11T11:47:43.716Z,36.10
2023-04-11T11:52:45.875Z,37.80
2023-04-11T11:57:48.959Z,37.20
2023-04-11T12:02:55.758Z,38.00
2023-04-11T12:07:59.943Z,37.70
2023-04-11T12:13:02.002Z,38.30
2023-04-11T12:18:07.138Z,38.80
2023-04-11T12:23:08.914Z,38.50
2023-04-11T12:28:11.597Z,37.40
2023-04-11T12:33:13.595Z,35.60
2023-04-11T12:38:17.825Z,35.90
2023-04-11T12:43:20.699Z,34.50
2023-04-11T12:48:22.443Z,35.10
2023-04-11T12:53:25.145Z,34.70
2023-04-11T12:58:28.820Z,35.20
2023-04-11T13:03:30.689Z,34.20
2023-04-11T13:08:32.667Z,34.20
2023-04-11T13:13:34.700Z,34.30
2023-04-11T13:18:36.450Z,34.70
2023-04-11T13:23:38.199Z,34.60
2023-04-11T13:28:39.940Z,34.90
2023-04-11T13:33:42.942Z,35.10
2023-04-11T13:38:49.452Z,35.40
2023-04-11T13:43:52.405Z,34.20
2023-04-11T13:48:54.348Z,35.20
2023-04-11T13:53:56.490Z,35.20
2023-04-11T13:58:58.763Z,35.40
2023-04-11T14:04:02.382Z,35.20
2023-04-11T14:09:08.023Z,35.90
2023-04-11T14:14:09.838Z,36.50
2023-04-11T14:19:11.729Z,36.90
2023-04-11T14:24:13.526Z,37.10
2023-04-11T14:29:15.480Z,37.90
2023-04-11T14:34:18.573Z,38.80
2023-04-11T14:39:20.644Z,39.80
2023-04-11T14:44:22.372Z,37.80
2023-04-11T14:49:24.181Z,38.40
2023-04-11T14:54:26.605Z,37.00
2023-04-11T14:59:28.383Z,35.80
2023-04-11T15:04:30.474Z,36.90
2023-04-11T15:09:33.432Z,37.60
2023-04-11T15:14:35.338Z,37.60
2023-04-11T15:19:37.228Z,36.80
2023-04-11T15:24:39.079Z,37.20
2023-04-11T15:29:40.881Z,36.40
2023-04-11T15:34:42.837Z,36.40
2023-04-11T15:39:44.729Z,37.30
2023-04-11T15:44:46.613Z,36.90
2023-04-11T15:49:48.457Z,38.20
2023-04-11T15:54:50.581Z,38.00
2023-04-11T15:59:52.283Z,38.60
2023-04-11T16:04:55.273Z,39.10
2023-04-11T16:09:57.380Z,39.30
2023-04-11T16:14:59.160Z,39.40
2023-04-11T16:20:00.902Z,39.20
2023-04-11T16:25:06.745Z,39.80
2023-04-11T16:30:09.539Z,40.00
2023-04-11T16:35:11.490Z,39.90
2023-04-11T16:40:13.540Z,41.20
2023-04-11T16:45:15.628Z,41.00
2023-04-11T16:50:18.000Z,41.10
2023-04-11T16:55:20.021Z,42.30
2023-04-11T17:00:21.965Z,42.20
2023-04-11T17:05:24.036Z,42.90
2023-04-11T17:10:26.002Z,44.40
2023-04-11T17:15:27.877Z,45.10
2023-04-11T17:20:29.598Z,46.60
2023-04-11T17:25:31.974Z,47.90
2023-04-11T17:30:33.879Z,49.40
2023-04-11T17:35:35.933Z,50.30
2023-04-11T17:40:39.592Z,51.10
2023-04-11T17:45:42.888Z,52.30
2023-04-11T17:50:46.238Z,54.10
2023-04-11T17:55:48.779Z,54.90
2023-04-11T18:00:56.605Z,55.40
2023-04-11T18:05:59.853Z,56.90
2023-04-11T18:11:03.284Z,56.50
2023-04-11T18:16:05.383Z,57.90
2023-04-11T18:21:08.036Z,58.60
2023-04-11T18:26:09.929Z,60.30
2023-04-11T18:31:12.096Z,59.70
2023-04-11T18:36:13.941Z,58.10
2023-04-11T18:41:16.329Z,58.60
2023-04-11T18:46:18.291Z,59.10
2023-04-11T18:51:20.778Z,57.00
2023-04-11T18:56:22.799Z,59.50
2023-04-11T19:01:24.830Z,58.30
2023-04-11T19:06:26.826Z,59.40
2023-04-11T19:11:28.554Z,57.70
2023-04-11T19:16:31.266Z,56.60
2023-04-11T19:21:33.108Z,57.90
2023-04-11T19:26:35.139Z,58.00
2023-04-11T19:31:37.574Z,58.80
2023-04-11T19:36:39.501Z,57.50
2023-04-11T19:41:45.626Z,58.10
2023-04-11T19:46:47.412Z,57.30
2023-04-11T19:51:49.142Z,57.00
2023-04-11T19:56:53.925Z,57.10
2023-04-11T20:01:55.829Z,57.10
2023-04-11T20:07:00.768Z,57.30
2023-04-11T20:12:03.353Z,58.50
2023-04-11T20:17:06.073Z,59.80
2023-04-11T20:22:10.799Z,61.20
2023-04-11T20:27:12.481Z,61.40
2023-04-11T20:32:14.172Z,61.40
2023-04-11T20:37:18.357Z,61.70
2023-04-11T20:42:20.622Z,62.40
2023-04-11T20:47:22.336Z,63.10
2023-04-11T20:52:24.582Z,64.10
2023-04-11T20:57:30.035Z,63.30
2023-04-11T21:02:32.386Z,63.60
2023-04-11T21:07:35.791Z,64.00
2023-04-11T21:12:37.732Z,64.10
2023-04-11T21:17:39.617Z,64.50
2023-04-11T21:22:41.655Z,65.50
2023-04-11T21:27:43.692Z,66.00
2023-04-11T21:32:45.657Z,66.80
2023-04-11T21:37:49.249Z,68.40
2023-04-11T21:42:51.096Z,69.00
2023-04-11T21:47:52.985Z,68.80
2023-04-11T21:52:54.818Z,69.70
2023-04-11T21:57:56.822Z,68.10
2023-04-11T22:02:58.740Z,66.50
2023-04-11T22:08:14.903Z,65.30
2023-04-11T22:13:18.994Z,65.90
2023-04-11T22:18:27.139Z,65.30
2023-04-11T22:23:28.848Z,64.80
2023-04-11T22:28:30.661Z,64.50
2023-04-11T22:33:32.478Z,65.10
2023-04-11T22:38:35.195Z,64.30
2023-04-11T22:43:37.041Z,64.40
2023-04-11T22:48:38.814Z,64.80
2023-04-11T22:53:42.193Z,65.10
2023-04-11T22:58:46.063Z,66.20
2023-04-11T23:03:48.025Z,65.80
2023-04-11T23:08:49.906Z,65.40
2023-04-11T23:13:52.846Z,65.90
2023-04-11T23:18:55.418Z,66.60
2023-04-11T23:23:57.370Z,66.90
2023-04-11T23:29:01.117Z,67.60
2023-04-11T23:34:02.820Z,67.60
2023-04-11T23:39:05.381Z,68.00
2023-04-11T23:44:07.254Z,68.10
2023-04-11T23:49:09.008Z,68.60
2023-04-11T23:54:10.780Z,68.40
2023-04-11T23:59:12.873Z,68.60
